Time;durP1;ratioP1;P1;durP2;ratioP2;P2;SDS_P1;SDS_P2;PMS_P1;PMS_P2;Temp;Humidity;BMP_temperature;BMP_pressure;BME280_temperature;BME280_humidity;BME280_pressure;Samples;Min_cycle;Max_cycle;Signal;HPM_P1;HPM_P2
2022/11/06 00:00:40;;;;;;;34.13;22.73;;;;;;;12.18;100.00;99990.06;5011135;28;20123;-67
2022/11/06 00:03:06;;;;;;;32.33;22.77;;;;;;;12.00;100.00;99993.25;5011775;28;20572;-68
2022/11/06 00:08:29;;;;;;;31.45;22.95;;;;;;;11.41;100.00;99934.97;5011616;28;20085;-70
2022/11/06 00:10:54;;;;;;;36.38;23.38;;;;;;;11.94;100.00;99985.81;5011302;28;20045;-68
2022/11/06 00:13:20;;;;;;;32.05;22.25;;;;;;;11.77;100.00;99938.84;5020395;28;20037;-69
2022/11/06 00:15:45;;;;;;;32.65;22.13;;;;;;;11.79;100.00;99965.94;5029450;28;20503;-67
2022/11/06 00:18:10;;;;;;;33.13;23.00;;;;;;;11.78;100.00;99983.84;5015884;28;20057;-68
2022/11/06 00:20:36;;;;;;;33.58;22.00;;;;;;;11.71;100.00;99974.72;5009693;28;20125;-67
2022/11/06 00:23:01;;;;;;;37.47;21.50;;;;;;;11.41;100.00;99907.75;5011241;28;20029;-68
2022/11/06 00:25:27;;;;;;;35.83;22.20;;;;;;;11.07;100.00;99910.53;5010958;28;20117;-68
2022/11/06 00:27:52;;;;;;;39.88;22.20;;;;;;;11.67;100.00;99989.25;5011209;28;20124;-67
2022/11/06 00:30:19;;;;;;;35.15;22.70;;;;;;;11.21;100.00;99918.59;5009816;28;20412;-68
2022/11/06 00:32:46;;;;;;;35.97;21.73;;;;;;;11.23;100.00;99928.75;5009588;28;20135;-67
2022/11/06 00:35:12;;;;;;;30.38;21.90;;;;;;;11.56;100.00;99986.22;5009767;28;20444;-68
2022/11/06 00:37:37;;;;;;;30.83;21.27;;;;;;;11.26;100.00;99937.09;5023504;28;20042;-68
2022/11/06 00:40:03;;;;;;;33.00;21.88;;;;;;;11.60;100.00;99999.66;5012254;28;20080;-68
2022/11/06 00:42:28;;;;;;;36.75;22.23;;;;;;;11.75;100.00;100011.94;5010973;28;20029;-67
2022/11/06 00:44:54;;;;;;;34.38;23.42;;;;;;;11.52;100.00;99971.06;5010969;28;20046;-67
2022/11/06 00:47:19;;;;;;;33.28;23.67;;;;;;;11.57;100.00;99974.31;5010602;28;20120;-68
2022/11/06 00:49:45;;;;;;;33.17;23.67;;;;;;;11.21;100.00;99933.84;5010904;28;20036;-68
2022/11/06 00:52:10;;;;;;;33.47;23.85;;;;;;;11.15;100.00;99928.16;5010887;28;20078;-67
2022/11/06 00:54:36;;;;;;;34.05;22.63;;;;;;;11.42;100.00;99985.81;5010499;28;20034;-67
2022/11/06 00:57:01;;;;;;;39.95;25.52;;;;;;;10.94;100.00;99951.66;5010397;28;20116;-67
2022/11/06 00:59:26;;;;;;;36.92;25.42;;;;;;;11.04;100.00;99909.81;5009511;28;20025;-68
2022/11/06 01:01:52;;;;;;;37.70;24.90;;;;;;;10.94;100.00;99928.78;5010799;28;20052;-67
2022/11/06 01:04:21;;;;;;;33.15;24.00;;;;;;;10.59;100.00;99895.94;5016540;28;20156;-67
2022/11/06 01:06:49;;;;;;;35.85;24.30;;;;;;;10.86;100.00;99945.97;5030263;28;20029;-67
2022/11/06 01:09:17;;;;;;;40.20;24.60;;;;;;;11.19;100.00;99963.59;5029120;28;20034;-67
2022/11/06 01:11:46;;;;;;;32.33;24.15;;;;;;;11.30;100.00;99965.81;5029952;28;20039;-67
2022/11/06 01:14:13;;;;;;;34.15;24.00;;;;;;;11.40;100.00;99954.47;5030205;28;20036;-67
2022/11/06 01:16:39;;;;;;;36.63;23.35;;;;;;;11.42;100.00;99969.69;5028676;28;20132;-67
2022/11/06 01:19:04;;;;;;;30.30;22.35;;;;;;;11.43;100.00;99967.09;5028578;28;20112;-67
2022/11/06 01:21:34;;;;;;;33.10;22.70;;;;;;;11.66;100.00;99967.25;5028184;28;20511;-67
2022/11/06 01:24:02;;;;;;;30.73;21.95;;;;;;;11.50;100.00;99939.75;5029994;28;20052;-67
2022/11/06 01:26:29;;;;;;;37.15;22.35;;;;;;;11.13;100.00;99914.63;5030031;28;20128;-66
2022/11/06 01:28:55;;;;;;;32.97;21.50;;;;;;;11.38;100.00;99912.97;5031567;28;20061;-67
2022/11/06 01:31:23;;;;;;;29.88;21.20;;;;;;;11.45;100.00;99949.25;5034023;28;20053;-66
2022/11/06 01:33:49;;;;;;;32.75;20.75;;;;;;;11.52;100.00;99954.09;5034166;28;20506;-68
2022/11/06 01:36:17;;;;;;;35.50;22.33;;;;;;;11.06;100.00;99921.63;5032614;28;20029;-67
2022/11/06 01:38:44;;;;;;;31.83;22.40;;;;;;;11.27;100.00;99955.72;5032513;28;20029;-67
2022/11/06 01:41:21;;;;;;;36.20;21.90;;;;;;;11.33;100.00;99986.06;5032633;28;20022;-67
2022/11/06 01:43:58;;;;;;;32.05;21.13;;;;;;;11.27;100.00;99948.09;5032487;28;20511;-66
2022/11/06 01:46:26;;;;;;;33.40;20.83;;;;;;;11.05;100.00;99919.13;5033803;28;20484;-67
2022/11/06 01:49:14;;;;;;;32.17;21.20;;;;;;;10.86;100.00;99901.03;5033666;28;20029;-68
2022/11/06 01:51:47;;;;;;;31.90;19.65;;;;;;;10.72;100.00;99854.84;5033474;28;20037;-66
2022/11/06 01:54:13;;;;;;;28.48;19.25;;;;;;;11.23;100.00;99956.72;5033582;28;20562;-66
2022/11/06 01:56:39;;;;;;;28.70;19.60;;;;;;;11.05;100.00;99963.19;5033640;28;20094;-66
2022/11/06 01:59:08;;;;;;;29.30;20.35;;;;;;;10.84;100.00;99958.75;5033520;28;20457;-68
2022/11/06 02:01:33;;;;;;;29.02;20.30;;;;;;;10.63;100.00;99916.16;5033060;28;20518;-67
2022/11/06 02:04:12;;;;;;;30.05;20.00;;;;;;;10.44;100.00;99890.44;5033628;28;20073;-66
2022/11/06 02:06:37;;;;;;;30.75;20.15;;;;;;;11.10;100.00;99978.31;5033136;28;20040;-66
2022/11/06 02:09:10;;;;;;;28.45;19.55;;;;;;;10.94;100.00;99961.84;5033404;28;20022;-66
2022/11/06 02:11:43;;;;;;;28.65;20.08;;;;;;;10.94;100.00;99956.75;5033467;28;20044;-67
2022/11/06 02:14:32;;;;;;;32.33;20.35;;;;;;;11.03;100.00;99976.84;5032013;28;20041;-68
2022/11/06 02:17:10;;;;;;;32.95;20.55;;;;;;;11.05;100.00;99972.56;5017172;28;20041;-67
2022/11/06 02:19:53;;;;;;;31.75;20.05;;;;;;;11.01;100.00;99956.53;5013351;28;20108;-66
2022/11/06 02:22:24;;;;;;;31.30;19.85;;;;;;;10.99;100.00;99965.91;5013783;28;20038;-68
2022/11/06 02:24:58;;;;;;;32.28;19.65;;;;;;;11.06;100.00;99956.41;5013822;28;20026;-68
2022/11/06 02:27:25;;;;;;;30.48;20.00;;;;;;;10.92;100.00;99951.72;5013415;28;20168;-68
2022/11/06 02:30:00;;;;;;;33.92;20.38;;;;;;;11.07;100.00;99956.34;5013324;28;20026;-68
2022/11/06 02:32:52;;;;;;;32.08;20.23;;;;;;;11.17;100.00;99962.81;5011911;28;20084;-67
2022/11/06 02:35:57;;;;;;;31.67;20.45;;;;;;;10.83;100.00;99953.72;5012073;28;20485;-67
2022/11/06 02:38:30;;;;;;;31.65;19.73;;;;;;;10.98;100.00;99968.50;5011990;28;20087;-67
2022/11/06 02:41:01;;;;;;;33.63;19.42;;;;;;;10.75;100.00;99904.78;5012968;28;20088;-67
2022/11/06 02:43:37;;;;;;;30.30;18.70;;;;;;;10.77;100.00;99903.88;5013035;28;20049;-68
2022/11/06 02:46:23;;;;;;;25.45;19.23;;;;;;;10.82;100.00;99924.91;5013426;28;20477;-67
2022/11/06 02:49:05;;;;;;;29.73;18.50;;;;;;;11.05;100.00;99963.19;5011930;28;20183;-68
2022/11/06 02:51:36;;;;;;;25.95;18.08;;;;;;;10.68;100.00;99919.38;5011168;28;20120;-68
2022/11/06 02:54:05;;;;;;;27.20;18.65;;;;;;;11.09;100.00;99966.50;5011969;28;20145;-68
2022/11/06 02:56:38;;;;;;;28.67;18.50;;;;;;;10.65;100.00;99903.41;5012803;28;20026;-68
2022/11/06 02:59:10;;;;;;;27.48;17.85;;;;;;;10.95;100.00;99966.06;5012926;28;20026;-67
2022/11/06 03:01:42;;;;;;;28.02;17.67;;;;;;;10.33;100.00;99884.84;5012983;28;20029;-66
2022/11/06 03:04:39;;;;;;;28.27;17.33;;;;;;;10.97;100.00;99972.75;5012320;28;20022;-67
2022/11/06 03:07:14;;;;;;;28.55;18.25;;;;;;;10.96;100.00;99967.72;5011658;28;20033;-67
2022/11/06 03:09:41;;;;;;;27.50;17.50;;;;;;;10.94;100.00;99969.47;5012805;28;20079;-67
2022/11/06 03:12:24;;;;;;;33.15;18.48;;;;;;;10.88;100.00;99969.66;5011224;28;20037;-67
2022/11/06 03:14:49;;;;;;;32.28;18.92;;;;;;;11.05;100.00;99972.56;5011299;28;20057;-67
2022/11/06 03:17:24;;;;;;;26.70;18.38;;;;;;;11.14;100.00;99964.63;5012245;28;20092;-67
2022/11/06 03:20:09;;;;;;;28.13;17.98;;;;;;;11.02;100.00;99980.25;5012430;28;20042;-66
2022/11/06 03:22:43;;;;;;;26.60;17.33;;;;;;;10.33;100.00;99882.31;5011006;28;20026;-66
2022/11/06 03:25:49;;;;;;;27.92;18.08;;;;;;;10.35;100.00;99870.38;5010588;28;20049;-67
2022/11/06 03:28:37;;;;;;;26.90;16.92;;;;;;;11.19;100.00;99975.50;5018969;28;20045;-67
2022/11/06 03:31:10;;;;;;;26.77;17.65;;;;;;;10.90;100.00;99907.72;5011885;28;20079;-68
2022/11/06 03:33:40;;;;;;;30.17;15.63;;;;;;;11.20;100.00;99969.53;5012104;28;20061;-67
2022/11/06 03:36:24;;;;;;;28.00;16.45;;;;;;;10.91;100.00;99890.75;5012190;28;20084;-67
2022/11/06 03:38:54;;;;;;;26.90;17.27;;;;;;;11.12;100.00;99888.34;5010809;28;20477;-66
2022/11/06 03:41:48;;;;;;;28.30;17.60;;;;;;;11.59;100.00;99962.38;5011621;28;20408;-66
2022/11/06 03:44:18;;;;;;;28.58;18.08;;;;;;;11.58;100.00;99943.72;5011540;28;20137;-68
2022/11/06 03:46:49;;;;;;;33.08;18.67;;;;;;;11.84;100.00;99970.91;5012096;28;20147;-68
2022/11/06 03:49:27;;;;;;;24.05;17.20;;;;;;;11.28;100.00;99884.44;5011886;28;20038;-67
2022/11/06 03:52:01;;;;;;;27.35;16.67;;;;;;;11.52;100.00;99912.50;5009576;28;20057;-68
2022/11/06 03:54:31;;;;;;;27.23;18.10;;;;;;;11.39;100.00;99896.81;5011450;28;20152;-66
2022/11/06 03:57:09;;;;;;;29.35;17.75;;;;;;;11.50;100.00;99904.94;5010103;28;20026;-66
2022/11/06 03:59:43;;;;;;;26.88;16.35;;;;;;;12.06;100.00;99975.19;5010187;28;20053;-66
2022/11/06 04:02:11;;;;;;;28.85;16.60;;;;;;;11.85;100.00;99963.19;5011291;28;20507;-66
2022/11/06 04:04:49;;;;;;;24.63;15.95;;;;;;;12.09;100.00;99984.47;5011158;28;20069;-66
2022/11/06 04:07:20;;;;;;;22.88;15.23;;;;;;;11.97;100.00;99975.53;5011365;28;20029;-66
2022/11/06 04:15:23;;;;;;;25.27;15.63;;;;;;;11.94;100.00;99985.00;5010913;28;20053;-67
2022/11/06 04:17:49;;;;;;;24.50;15.82;;;;;;;11.85;100.00;99958.09;5011164;28;20034;-67
2022/11/06 04:23:09;;;;;;;23.42;15.32;;;;;;;11.86;100.00;99975.06;5011426;28;20088;-67
2022/11/06 04:29:11;;;;;;;24.02;15.48;;;;;;;11.76;100.00;99971.16;5030200;28;20052;-67
2022/11/06 04:31:55;;;;;;;22.05;14.60;;;;;;;11.82;100.00;99959.94;5030444;28;20496;-68
2022/11/06 04:34:50;;;;;;;26.88;15.10;;;;;;;11.97;100.00;99961.94;5030879;28;20179;-68
2022/11/06 04:37:38;;;;;;;22.13;14.82;;;;;;;11.43;100.00;99920.47;5028133;28;20045;-67
2022/11/06 04:40:18;;;;;;;25.42;15.43;;;;;;;11.64;100.00;99925.69;5028981;28;20061;-68
2022/11/06 04:43:23;;;;;;;25.80;14.93;;;;;;;11.71;100.00;99967.06;5030339;28;20029;-67
2022/11/06 04:45:54;;;;;;;27.35;16.88;;;;;;;11.75;100.00;99958.44;5030210;28;20096;-67
2022/11/06 04:48:22;;;;;;;31.73;15.80;;;;;;;11.44;100.00;99892.41;5030619;28;20037;-67
2022/11/06 04:50:57;;;;;;;33.05;16.67;;;;;;;11.38;100.00;99917.22;5030370;28;20029;-69
2022/11/06 04:53:23;;;;;;;28.38;16.05;;;;;;;11.88;100.00;99972.47;5030680;28;20025;-67
2022/11/06 04:55:55;;;;;;;27.17;16.23;;;;;;;11.99;100.00;99958.47;5023293;28;20036;-66
2022/11/06 04:58:20;;;;;;;32.92;16.90;;;;;;;11.67;100.00;99940.03;5009111;28;20047;-68
2022/11/06 05:00:49;;;;;;;34.28;16.80;;;;;;;11.39;100.00;99922.25;5009584;28;20021;-68
2022/11/06 05:03:15;;;;;;;29.45;18.00;;;;;;;11.19;100.00;99922.88;5026022;28;20041;-68
2022/11/06 05:05:41;;;;;;;28.92;18.40;;;;;;;11.41;100.00;99927.31;5017650;28;20029;-68
2022/11/06 05:08:15;;;;;;;29.25;18.60;;;;;;;11.64;100.00;99986.78;5030263;28;20137;-67
2022/11/06 05:10:42;;;;;;;32.42;18.25;;;;;;;11.29;100.00;99913.25;5030051;28;20030;-67
2022/11/06 05:13:08;;;;;;;35.33;18.52;;;;;;;11.22;100.00;99917.72;5030046;28;20420;-68
2022/11/06 05:15:33;;;;;;;32.58;18.17;;;;;;;11.68;100.00;99973.13;5018353;28;20038;-68
2022/11/06 05:17:59;;;;;;;29.10;18.73;;;;;;;11.20;100.00;99898.28;5026400;28;20033;-67
2022/11/06 05:20:25;;;;;;;25.02;17.23;;;;;;;11.73;100.00;100006.88;5029129;28;20442;-67
2022/11/06 05:22:59;;;;;;;30.02;17.50;;;;;;;11.71;100.00;99993.38;5017182;28;20084;-67
2022/11/06 05:25:30;;;;;;;28.00;16.63;;;;;;;11.38;100.00;99915.50;5024259;28;20034;-68
2022/11/06 05:27:56;;;;;;;24.60;16.80;;;;;;;11.87;100.00;99978.41;5019201;28;20121;-68
2022/11/06 05:30:23;;;;;;;27.20;17.20;;;;;;;11.24;100.00;99898.16;5028132;28;20044;-67
2022/11/06 05:32:49;;;;;;;26.05;16.25;;;;;;;11.88;100.00;100013.22;5028771;28;20053;-67
2022/11/06 05:35:15;;;;;;;32.00;16.17;;;;;;;11.52;100.00;99982.09;5035607;28;20486;-68
2022/11/06 05:37:41;;;;;;;26.63;16.25;;;;;;;11.37;100.00;99948.66;5017190;28;20038;-69
2022/11/06 05:40:09;;;;;;;28.77;15.60;;;;;;;11.37;100.00;99948.66;5030148;28;20034;-69
2022/11/06 05:42:42;;;;;;;24.85;15.80;;;;;;;11.64;100.00;100030.09;5029477;28;20037;-68
2022/11/06 05:45:09;;;;;;;24.55;14.93;;;;;;;11.57;100.00;100015.88;5027865;28;20545;-69
2022/11/06 05:47:34;;;;;;;23.35;15.05;;;;;;;11.71;100.00;100001.03;5022064;28;20121;-69
2022/11/06 05:50:00;;;;;;;23.70;15.40;;;;;;;11.62;100.00;100029.31;5018824;28;20129;-69
2022/11/06 05:52:25;;;;;;;25.58;15.68;;;;;;;11.38;100.00;99984.25;5010365;28;20034;-69
2022/11/06 05:54:51;;;;;;;23.95;15.10;;;;;;;11.64;100.00;100016.50;5009773;28;20034;-70
2022/11/06 05:57:16;;;;;;;26.00;15.73;;;;;;;11.65;100.00;100033.44;5009675;28;20032;-71
2022/11/06 05:59:42;;;;;;;24.73;16.35;;;;;;;10.74;100.00;99926.84;5009604;28;20080;-71
2022/11/06 06:02:09;;;;;;;24.73;15.82;;;;;;;11.36;100.00;99988.53;5008854;28;20057;-71
2022/11/06 06:04:36;;;;;;;26.33;15.48;;;;;;;11.34;100.00;99978.41;5019517;28;20030;-71
2022/11/06 06:07:02;;;;;;;28.48;18.67;;;;;;;11.87;100.00;100042.09;5028493;28;20033;-70
2022/11/06 06:09:27;;;;;;;27.10;17.67;;;;;;;11.26;100.00;99966.78;5029374;28;20095;-71
2022/11/06 06:11:53;;;;;;;22.27;17.30;;;;;;;11.42;100.00;99990.91;5029828;28;20040;-70
2022/11/06 06:14:19;;;;;;;25.05;15.55;;;;;;;12.33;100.00;100033.78;5029757;28;20108;-70
2022/11/06 06:16:46;;;;;;;32.35;16.42;;;;;;;11.76;100.00;100014.44;5032532;28;20025;-70
2022/11/06 06:19:12;;;;;;;28.60;17.05;;;;;;;12.04;100.00;100060.25;5033989;28;20087;-72
2022/11/06 06:21:37;;;;;;;29.08;16.55;;;;;;;11.87;100.00;100003.88;5033711;28;20037;-70
2022/11/06 06:24:04;;;;;;;24.95;16.17;;;;;;;12.19;100.00;100058.03;5017631;28;20101;-72
2022/11/06 06:26:30;;;;;;;25.65;15.25;;;;;;;11.83;100.00;99992.13;5013636;28;20042;-73
2022/11/06 06:28:55;;;;;;;23.55;15.50;;;;;;;12.11;100.00;100006.47;5020923;28;20044;-72
2022/11/06 06:31:21;;;;;;;22.65;14.52;;;;;;;11.93;100.00;99948.50;5032973;28;20113;-70
2022/11/06 06:33:46;;;;;;;23.27;15.38;;;;;;;11.89;100.00;99946.94;5031490;28;20511;-71
2022/11/06 06:36:11;;;;;;;29.25;16.10;;;;;;;12.60;100.00;100053.19;5032215;28;20041;-75
2022/11/06 06:38:37;;;;;;;24.48;15.35;;;;;;;12.05;100.00;99932.78;5033489;28;20032;-73
2022/11/06 06:41:04;;;;;;;22.70;15.02;;;;;;;12.89;100.00;100053.84;5034083;28;20480;-75
2022/11/06 06:43:30;;;;;;;24.52;15.18;;;;;;;12.70;100.00;100021.38;5032405;28;20137;-73
2022/11/06 06:46:04;;;;;;;26.33;15.82;;;;;;;12.32;100.00;99942.91;5033414;28;20057;-74
2022/11/06 06:48:30;;;;;;;23.17;15.13;;;;;;;12.73;100.00;100001.72;5023289;28;20029;-70
2022/11/06 06:50:57;;;;;;;27.40;15.75;;;;;;;13.08;100.00;100023.41;5032886;28;20033;-70
2022/11/06 06:53:23;;;;;;;26.85;14.98;;;;;;;13.12;100.00;100007.09;5032938;28;20472;-72
2022/11/06 06:55:48;;;;;;;25.42;15.57;;;;;;;13.02;100.00;99967.47;5021196;28;20030;-71
2022/11/06 06:58:14;;;;;;;27.75;16.23;;;;;;;12.87;100.00;99948.47;5013272;28;20033;-72
2022/11/06 07:00:39;;;;;;;63.65;19.17;;;;;;;13.92;100.00;100066.03;5013295;28;20033;-76
2022/11/06 07:03:05;;;;;;;52.67;17.23;;;;;;;13.88;100.00;100035.59;5013775;28;20030;-76
2022/11/06 07:05:30;;;;;;;23.52;15.15;;;;;;;14.02;100.00;100081.03;5017000;28;20484;-71
2022/11/06 07:07:56;;;;;;;28.23;15.57;;;;;;;13.93;100.00;100059.22;5013624;28;20060;-70
2022/11/06 07:10:21;;;;;;;34.95;15.50;;;;;;;14.36;100.00;100087.28;5013855;28;20034;-75
2022/11/06 07:12:47;;;;;;;37.85;15.70;;;;;;;14.49;100.00;100079.94;5014000;28;20041;-74
2022/11/06 07:15:13;;;;;;;22.23;14.20;;;;;;;14.29;100.00;100042.41;5014353;28;20037;-70
2022/11/06 07:17:38;;;;;;;23.00;14.60;;;;;;;14.37;100.00;100040.34;5012334;28;20059;-72
2022/11/06 07:20:04;;;;;;;27.50;14.00;;;;;;;14.88;100.00;100085.88;5012461;28;20061;-71
2022/11/06 07:22:30;;;;;;;24.58;13.82;;;;;;;14.85;100.00;100078.34;5020150;28;20038;-73
2022/11/06 07:24:55;;;;;;;27.45;14.98;;;;;;;14.88;100.00;100067.97;5015731;28;20026;-73
2022/11/06 07:27:21;;;;;;;26.55;14.77;;;;;;;14.83;100.00;100033.25;5011836;28;20034;-71
2022/11/06 07:29:46;;;;;;;20.85;14.27;;;;;;;14.96;100.00;100042.84;5012980;28;20439;-72
2022/11/06 07:32:12;;;;;;;31.67;15.73;;;;;;;15.23;100.00;100086.91;5012924;28;20530;-72
2022/11/06 07:34:40;;;;;;;25.17;14.50;;;;;;;15.30;100.00;100090.84;5011945;28;20033;-72
2022/11/06 07:37:05;;;;;;;26.23;13.90;;;;;;;14.72;100.00;99985.91;5012092;28;20029;-73
2022/11/06 07:39:31;;;;;;;26.00;14.77;;;;;;;15.16;100.00;100032.56;5010776;28;20731;-73
2022/11/06 07:41:56;;;;;;;22.35;13.55;;;;;;;15.51;100.00;100085.59;5012614;28;20468;-72
2022/11/06 07:44:30;;;;;;;25.67;13.60;;;;;;;15.63;100.00;100102.94;5011336;28;20056;-71
2022/11/06 07:46:56;;;;;;;26.98;13.85;;;;;;;15.71;100.00;100097.47;5012146;28;20512;-70
2022/11/06 07:49:21;;;;;;;24.73;12.88;;;;;;;15.68;100.00;100096.78;5012083;28;20164;-72
2022/11/06 07:51:46;;;;;;;23.67;12.45;;;;;;;15.43;100.00;100064.59;5012042;28;20038;-71
2022/11/06 07:54:12;;;;;;;21.15;12.25;;;;;;;15.73;100.00;100098.22;5011153;28;20424;-70
2022/11/06 07:56:37;;;;;;;25.90;11.80;;;;;;;15.25;100.00;100026.19;5011944;28;20033;-71
2022/11/06 07:59:03;;;;;;;28.40;12.15;;;;;;;15.37;100.00;100026.44;5010734;28;20354;-72
2022/11/06 08:01:29;;;;;;;25.00;11.20;;;;;;;15.46;100.00;100043.13;5011890;28;20049;-71
2022/11/06 08:09:28;;;;;;;24.17;12.23;;;;;;;15.81;100.00;100069.66;5067648;28;20394;-69
2022/11/06 08:11:54;;;;;;;26.70;13.43;;;;;;;16.01;100.00;100103.72;5067543;28;20043;-69
2022/11/06 08:14:19;;;;;;;29.20;13.10;;;;;;;16.08;100.00;100117.91;5067515;28;20070;-70
2022/11/06 08:16:44;;;;;;;25.50;14.02;;;;;;;16.07;100.00;100107.69;5067718;28;20104;-71
2022/11/06 08:19:10;;;;;;;23.98;14.00;;;;;;;15.99;100.00;100099.53;5067536;28;20025;-71
2022/11/06 08:21:35;;;;;;;27.77;14.27;;;;;;;16.17;100.00;100116.63;5067298;28;20028;-70
2022/11/06 08:24:01;;;;;;;27.80;13.85;;;;;;;15.94;100.00;100068.19;5066495;28;20029;-69
2022/11/06 08:26:26;;;;;;;26.85;13.50;;;;;;;16.37;100.00;100108.78;5066249;28;20020;-70
2022/11/06 08:28:53;;;;;;;22.38;13.07;;;;;;;16.11;100.00;100058.75;5067211;28;20032;-71
2022/11/06 08:31:19;;;;;;;22.63;13.05;;;;;;;16.05;100.00;100056.50;5053311;28;20033;-70
2022/11/06 08:33:45;;;;;;;26.05;12.95;;;;;;;15.97;100.00;100047.50;5064004;28;20025;-69
2022/11/06 08:36:10;;;;;;;22.38;13.73;;;;;;;16.40;100.00;100121.47;5063976;28;20040;-69
2022/11/06 08:38:36;;;;;;;21.30;13.07;;;;;;;16.35;100.00;100064.41;5057740;28;20112;-69
2022/11/06 08:41:07;;;;;;;24.70;13.32;;;;;;;16.54;100.00;100103.66;5065710;28;20057;-70
2022/11/06 08:43:32;;;;;;;22.02;13.40;;;;;;;16.58;100.00;100117.19;5067181;28;20098;-72
2022/11/06 08:45:58;;;;;;;20.92;13.10;;;;;;;16.33;100.00;100066.22;5065219;28;20684;-71
2022/11/06 08:48:23;;;;;;;27.42;13.00;;;;;;;16.53;100.00;100096.03;5064880;28;20074;-71
2022/11/06 08:50:49;;;;;;;25.55;12.98;;;;;;;16.57;100.00;100097.53;5066749;28;20108;-71
2022/11/06 08:53:14;;;;;;;24.30;13.75;;;;;;;16.58;100.00;100118.00;5059810;28;20070;-75
2022/11/06 08:55:40;;;;;;;21.83;13.60;;;;;;;16.64;100.00;100099.72;5061916;28;20725;-70
2022/11/06 08:58:06;;;;;;;22.42;13.43;;;;;;;16.12;100.00;99998.03;5066802;28;20036;-70
2022/11/06 09:00:32;;;;;;;20.65;12.48;;;;;;;16.34;100.00;100047.34;5066141;28;20717;-71
2022/11/06 09:03:02;;;;;;;22.75;13.18;;;;;;;16.35;100.00;100062.66;5066911;28;20112;-69
2022/11/06 09:05:29;;;;;;;20.52;13.48;;;;;;;16.88;100.00;100116.44;5066794;28;20574;-70
2022/11/06 09:07:55;;;;;;;20.58;13.82;;;;;;;16.93;100.00;100109.34;5064702;28;20087;-70
2022/11/06 09:10:21;;;;;;;33.45;13.90;;;;;;;17.00;100.00;100120.09;5065186;28;20021;-72
2022/11/06 09:12:47;;;;;;;26.42;13.80;;;;;;;16.79;100.00;100069.88;5066426;28;20032;-73
2022/11/06 09:15:12;;;;;;;25.55;13.95;;;;;;;17.18;100.00;100108.88;5064967;28;20067;-70
2022/11/06 09:17:44;;;;;;;27.20;14.05;;;;;;;17.29;100.00;100115.09;5062484;28;20028;-71
2022/11/06 09:20:11;;;;;;;25.60;14.35;;;;;;;17.05;100.00;100061.63;5056732;28;20029;-70
2022/11/06 09:22:37;;;;;;;28.20;14.80;;;;;;;17.24;100.00;100075.97;5050274;28;20764;-72
2022/11/06 09:25:03;;;;;;;23.67;15.07;;;;;;;17.26;100.00;100070.75;5047482;28;20037;-71
2022/11/06 09:27:28;;;;;;;22.23;14.77;;;;;;;17.43;100.00;100039.00;5052792;28;20513;-70
2022/11/06 09:29:54;;;;;;;25.25;15.18;;;;;;;17.63;100.00;100078.16;5052366;28;20025;-69
2022/11/06 09:32:19;;;;;;;25.55;15.80;;;;;;;17.89;100.00;100098.09;5052535;28;20115;-70
2022/11/06 09:34:45;;;;;;;28.05;17.60;;;;;;;17.86;100.00;100082.03;5052678;28;20036;-69
2022/11/06 09:37:10;;;;;;;28.73;17.77;;;;;;;17.77;100.00;100047.34;5052151;28;20033;-69
2022/11/06 09:39:36;;;;;;;30.83;19.02;;;;;;;17.93;100.00;100055.03;5043907;28;20408;-70
2022/11/06 09:42:32;;;;;;;29.98;17.95;;;;;;;17.79;100.00;100004.38;5031320;28;20025;-70
2022/11/06 09:45:08;;;;;;;26.40;15.57;;;;;;;18.34;100.00;100089.53;5031129;28;20037;-69
2022/11/06 09:47:40;;;;;;;23.13;16.85;;;;;;;18.46;100.00;100093.97;5032128;28;20033;-69
2022/11/06 09:50:14;;;;;;;28.80;15.98;;;;;;;17.96;100.00;100003.41;5031647;28;20515;-72
2022/11/06 09:52:53;;;;;;;30.45;16.13;;;;;;;18.34;100.00;100063.78;5031250;28;20029;-71
2022/11/06 09:55:39;;;;;;;26.10;17.00;;;;;;;18.34;100.00;100073.25;5032992;28;20124;-72
2022/11/06 09:58:13;;;;;;;26.42;15.57;;;;;;;18.26;100.00;100047.97;5032615;28;20516;-71
2022/11/06 10:00:40;;;;;;;37.20;16.23;;;;;;;18.72;100.00;100082.97;5031768;28;20032;-73
2022/11/06 10:03:18;;;;;;;31.05;15.75;;;;;;;18.52;100.00;100038.72;5040940;28;20029;-71
2022/11/06 10:05:46;;;;;;;109.35;22.25;;;;;;;18.90;100.00;100083.59;5052299;28;20106;-70
2022/11/06 10:08:21;;;;;;;28.33;15.02;;;;;;;18.83;100.00;100097.78;5050544;28;20091;-71
2022/11/06 10:10:58;;;;;;;24.33;14.82;;;;;;;18.95;100.00;100086.75;5050883;28;20082;-71
2022/11/06 10:13:35;;;;;;;28.60;15.43;;;;;;;19.07;100.00;100098.91;5035052;28;20029;-70
2022/11/06 10:16:45;;;;;;;25.00;14.88;;;;;;;18.97;100.00;100085.75;5032114;28;20032;-70
2022/11/06 10:19:32;;;;;;;28.05;15.73;;;;;;;19.16;100.00;100079.44;5029507;28;20037;-70
2022/11/06 10:22:06;;;;;;;26.20;15.23;;;;;;;19.24;100.00;100077.22;5031688;28;20083;-71
2022/11/06 10:24:44;;;;;;;26.75;14.65;;;;;;;18.89;100.00;100026.13;5030534;28;20029;-70
2022/11/06 10:27:27;;;;;;;23.45;14.57;;;;;;;19.34;100.00;100073.19;5031024;28;20033;-70
2022/11/06 10:30:09;;;;;;;22.00;14.13;;;;;;;19.46;100.00;100073.25;5036980;28;20025;-70
2022/11/06 10:32:55;;;;;;;22.58;14.30;;;;;;;19.47;100.00;100059.41;5046873;28;20033;-72
2022/11/06 10:35:33;;;;;;;27.85;14.95;;;;;;;19.66;100.00;100072.81;5044255;28;20041;-71
2022/11/06 10:38:13;;;;;;;26.05;14.15;;;;;;;19.26;100.00;100027.22;5037521;28;20471;-71
2022/11/06 10:40:43;;;;;;;21.92;13.88;;;;;;;19.35;100.00;100005.22;5040113;28;20033;-70
2022/11/06 10:43:29;;;;;;;22.02;13.23;;;;;;;19.63;100.00;100072.19;5035554;28;20021;-70
2022/11/06 10:46:17;;;;;;;22.63;13.38;;;;;;;19.70;100.00;100060.56;5036089;28;20187;-68
2022/11/06 10:48:48;;;;;;;21.55;12.93;;;;;;;19.64;100.00;100028.25;5032783;28;20164;-69
2022/11/06 10:51:23;;;;;;;26.85;13.20;;;;;;;19.64;100.00;100035.16;5049248;28;20032;-68
2022/11/06 10:54:13;;;;;;;25.08;14.00;;;;;;;19.86;100.00;100053.47;5051286;28;20033;-69
2022/11/06 10:56:48;;;;;;;23.08;14.10;;;;;;;19.81;100.00;100050.34;5043730;28;20500;-70
2022/11/06 10:59:15;;;;;;;22.73;13.20;;;;;;;19.95;100.00;100059.81;5040304;28;20021;-68
2022/11/06 11:01:40;;;;;;;27.13;14.02;;;;;;;19.55;100.00;99989.31;5051295;28;20167;-69
2022/11/06 11:04:06;;;;;;;21.33;13.00;;;;;;;19.74;100.00;100006.09;5037587;28;20602;-68
2022/11/06 11:06:31;;;;;;;23.33;13.93;;;;;;;19.70;100.00;99991.72;5038132;28;20040;-70
2022/11/06 11:08:57;;;;;;;24.25;13.88;;;;;;;20.24;100.00;100041.50;5050371;28;20049;-69
2022/11/06 11:11:27;;;;;;;25.60;13.52;;;;;;;20.21;100.00;100036.53;5048738;28;20056;-71
2022/11/06 11:13:55;;;;;;;18.48;12.60;;;;;;;20.31;100.00;100029.81;5051006;28;20071;-70
2022/11/06 11:16:43;;;;;;;22.70;11.80;;;;;;;19.86;100.00;99982.06;5044436;28;20044;-70
2022/11/06 11:19:26;;;;;;;22.83;12.38;;;;;;;19.54;100.00;99928.31;5051470;28;20029;-67
2022/11/06 11:21:59;;;;;;;21.00;12.57;;;;;;;20.23;100.00;100024.34;5049238;28;20072;-69
2022/11/06 11:24:25;;;;;;;22.38;11.88;;;;;;;19.85;100.00;99970.06;5049577;28;20032;-70
2022/11/06 11:26:59;;;;;;;23.10;12.38;;;;;;;19.95;100.00;99985.75;5049006;28;20697;-71
2022/11/06 11:29:48;;;;;;;18.88;11.15;;;;;;;20.29;100.00;100020.53;5051512;28;20028;-71
2022/11/06 11:32:17;;;;;;;17.13;10.70;;;;;;;20.13;100.00;100018.09;5051472;28;20037;-73
2022/11/06 11:34:46;;;;;;;16.75;10.38;;;;;;;20.13;100.00;100012.94;5049479;28;20043;-71
2022/11/06 11:37:29;;;;;;;19.73;10.07;;;;;;;19.64;100.00;99922.47;5051346;28;20029;-71
2022/11/06 11:40:35;;;;;;;16.75;10.23;;;;;;;20.21;100.00;100027.94;5051311;28;20087;-72
2022/11/06 11:43:18;;;;;;;19.02;10.32;;;;;;;20.21;100.00;100027.94;5050820;28;20056;-74